Time;durP1;ratioP1;P1;durP2;ratioP2;P2;SDS_P1;SDS_P2;PMS_P1;PMS_P2;Temp;Humidity;BMP_temperature;BMP_pressure;BME280_temperature;BME280_humidity;BME280_pressure;Samples;Min_cycle;Max_cycle;Signal;HPM_P1;HPM_P2
2023/09/30 00:01:10;;;;;;;32.22;6.15;;;;;;;-144.73;100.00;54539.06;5063055;28;20036;-77
2023/09/30 00:03:35;;;;;;;28.33;6.97;;;;;;;-144.73;100.00;54514.44;5044280;28;20033;-76
2023/09/30 00:06:00;;;;;;;44.42;7.15;;;;;;;-144.73;100.00;54551.38;5047503;28;20020;-76
2023/09/30 00:08:27;;;;;;;29.80;7.32;;;;;;;-144.73;100.00;54576.00;5044764;28;20120;-76
2023/09/30 00:10:54;;;;;;;41.45;6.80;;;;;;;-144.73;100.00;54555.47;5052979;28;20017;-74
2023/09/30 00:13:20;;;;;;;41.63;6.38;;;;;;;-144.73;100.00;54555.47;5057186;28;20033;-74
2023/09/30 00:15:45;;;;;;;32.08;6.53;;;;;;;-144.73;100.00;54563.69;5069286;28;20072;-76
2023/09/30 00:18:11;;;;;;;32.10;8.18;;;;;;;-144.73;100.00;54604.75;5051155;28;20090;-76
2023/09/30 00:20:36;;;;;;;31.17;6.15;;;;;;;-144.73;100.00;54539.06;5052520;28;20070;-74
2023/09/30 00:23:01;;;;;;;28.92;6.22;;;;;;;-144.73;100.00;54526.75;5066662;28;20119;-74
2023/09/30 00:25:28;;;;;;;27.48;6.38;;;;;;;-144.73;100.00;54530.84;5052714;28;20020;-75
2023/09/30 00:27:53;;;;;;;34.42;6.65;;;;;;;-144.73;100.00;54555.47;5053768;28;20025;-76
2023/09/30 00:30:18;;;;;;;35.33;5.20;;;;;;;-144.73;100.00;54545.22;5052317;28;20036;-74
2023/09/30 00:32:46;;;;;;;37.05;6.32;;;;;;;-144.73;100.00;54522.63;5044706;28;20043;-77
2023/09/30 00:35:12;;;;;;;42.33;6.53;;;;;;;-144.73;100.00;54547.28;5057484;28;20052;-74
2023/09/30 00:37:38;;;;;;;38.90;6.43;;;;;;;-144.73;100.00;54502.13;5041866;28;20476;-76
2023/09/30 00:40:05;;;;;;;32.63;6.72;;;;;;;-144.73;100.00;54555.47;5063698;28;20021;-76
2023/09/30 00:42:31;;;;;;;41.00;6.85;;;;;;;-144.73;100.00;54514.44;5042477;28;20021;-74
2023/09/30 00:44:56;;;;;;;33.80;6.97;;;;;;;-144.73;100.00;54551.38;5052524;28;20324;-77
2023/09/30 00:47:23;;;;;;;34.38;6.25;;;;;;;-144.73;100.00;54563.69;5069231;28;20029;-77
2023/09/30 00:49:50;;;;;;;39.00;7.22;;;;;;;-144.73;100.00;54514.44;5054910;28;20063;-74
2023/09/30 00:52:16;;;;;;;37.47;7.25;;;;;;;-144.73;100.00;54514.44;5068794;28;20058;-75
2023/09/30 00:54:43;;;;;;;29.08;5.75;;;;;;;-144.73;100.00;54526.75;5040039;28;20029;-74
2023/09/30 00:57:10;;;;;;;35.00;6.90;;;;;;;-144.73;100.00;54530.84;5041861;28;20025;-77
2023/09/30 00:59:36;;;;;;;39.88;7.00;;;;;;;-144.73;100.00;54539.06;5048945;28;20036;-74
2023/09/30 01:02:01;;;;;;;40.53;6.47;;;;;;;-144.73;100.00;54567.81;5054270;28;20013;-76
2023/09/30 01:04:27;;;;;;;34.70;6.03;;;;;;;-144.73;100.00;54567.81;5047682;28;20044;-75
2023/09/30 01:06:53;;;;;;;36.05;6.68;;;;;;;-144.73;100.00;54522.63;5046917;28;20021;-75
2023/09/30 01:09:20;;;;;;;32.05;5.90;;;;;;;-144.73;100.00;54547.28;5051004;28;20055;-75
2023/09/30 01:11:45;;;;;;;25.58;5.82;;;;;;;-144.73;100.00;54543.16;5051685;28;20040;-75
2023/09/30 01:14:27;;;;;;;36.97;6.65;;;;;;;-144.73;100.00;54547.28;5047043;28;20045;-75
2023/09/30 01:16:54;;;;;;;31.40;6.22;;;;;;;-144.73;100.00;54555.47;5051942;28;20024;-76
2023/09/30 01:19:19;;;;;;;32.75;6.55;;;;;;;-144.73;100.00;54530.84;5050020;28;20127;-75
2023/09/30 01:21:48;;;;;;;25.90;5.40;;;;;;;-144.73;100.00;54555.47;5051827;28;20052;-76
2023/09/30 01:24:14;;;;;;;34.95;6.25;;;;;;;-144.73;100.00;54539.06;5050418;28;20051;-75
2023/09/30 01:26:40;;;;;;;39.45;6.05;;;;;;;-144.73;100.00;54547.28;5067598;28;20418;-75
2023/09/30 01:29:05;;;;;;;39.10;6.70;;;;;;;-144.73;100.00;54567.81;5047459;28;20090;-75
2023/09/30 01:31:31;;;;;;;37.75;7.10;;;;;;;-144.73;100.00;54485.69;5042815;28;20048;-75
2023/09/30 01:33:56;;;;;;;25.00;5.72;;;;;;;-144.73;100.00;54539.06;5064785;28;20037;-76
2023/09/30 01:36:22;;;;;;;34.60;5.53;;;;;;;-144.73;100.00;54555.47;5051451;28;20415;-74
2023/09/30 01:38:47;;;;;;;37.42;6.65;;;;;;;-144.73;100.00;54506.22;5049845;28;20025;-75
2023/09/30 01:41:12;;;;;;;40.70;6.47;;;;;;;-144.73;100.00;54547.28;5063793;28;20024;-77
2023/09/30 01:43:38;;;;;;;33.00;6.93;;;;;;;-144.73;100.00;54510.31;5049421;28;20116;-76
2023/09/30 01:46:05;;;;;;;38.47;6.00;;;;;;;-144.73;100.00;54524.69;5064132;28;20018;-75
2023/09/30 01:48:30;;;;;;;33.30;6.00;;;;;;;-144.73;100.00;54573.97;5045403;28;20116;-74
2023/09/30 01:50:56;;;;;;;40.28;7.55;;;;;;;-144.73;100.00;54559.59;5045776;28;20047;-74
2023/09/30 01:53:21;;;;;;;31.38;5.97;;;;;;;-144.73;100.00;54502.13;5050405;28;20041;-74
2023/09/30 01:55:47;;;;;;;38.45;6.95;;;;;;;-144.73;100.00;54539.06;5049408;28;20029;-74
2023/09/30 01:58:13;;;;;;;29.20;5.07;;;;;;;-144.73;100.00;54571.91;5065063;28;20083;-76
2023/09/30 02:00:38;;;;;;;26.35;6.15;;;;;;;-144.73;100.00;54551.38;5061239;28;20025;-76
2023/09/30 02:03:04;;;;;;;32.92;7.13;;;;;;;-144.73;100.00;54553.44;5059841;28;20033;-75
2023/09/30 02:05:29;;;;;;;32.20;6.80;;;;;;;-144.73;100.00;54555.47;5062337;28;20025;-74
2023/09/30 02:07:54;;;;;;;37.15;6.28;;;;;;;-144.73;100.00;54547.28;5053344;28;20049;-74
2023/09/30 02:10:20;;;;;;;30.52;5.68;;;;;;;-144.73;100.00;54573.97;5064410;28;20025;-74
2023/09/30 02:12:46;;;;;;;38.90;6.13;;;;;;;-144.73;100.00;54541.13;5049186;28;20510;-74
2023/09/30 02:15:12;;;;;;;39.15;7.85;;;;;;;-144.73;100.00;54528.81;5047499;28;20030;-75
2023/09/30 02:17:38;;;;;;;29.92;5.50;;;;;;;-144.73;100.00;54547.28;5050358;28;20033;-75
2023/09/30 02:20:12;;;;;;;32.33;5.43;;;;;;;-144.73;100.00;54526.75;5067754;28;20029;-74
2023/09/30 02:22:38;;;;;;;29.33;5.53;;;;;;;-144.73;100.00;54551.38;5048679;28;20024;-74
2023/09/30 02:25:07;;;;;;;30.23;6.97;;;;;;;-144.73;100.00;54518.53;5042311;28;20014;-75
2023/09/30 02:27:33;;;;;;;30.80;5.95;;;;;;;-144.73;100.00;54555.47;5067213;28;20092;-74
2023/09/30 02:29:58;;;;;;;31.85;6.65;;;;;;;-144.73;100.00;54539.06;5049837;28;20096;-76
2023/09/30 02:32:23;;;;;;;34.78;6.75;;;;;;;-144.73;100.00;54547.28;5068223;28;20032;-75
2023/09/30 02:34:50;;;;;;;30.33;6.22;;;;;;;-144.73;100.00;54514.44;5043249;28;20075;-75
2023/09/30 02:37:15;;;;;;;38.65;8.73;;;;;;;-144.73;100.00;54539.06;5055274;28;20207;-75
2023/09/30 02:39:41;;;;;;;39.30;6.03;;;;;;;-144.73;100.00;54567.81;5051720;28;20116;-75
2023/09/30 02:42:06;;;;;;;35.92;7.05;;;;;;;-144.73;100.00;54571.91;5046649;28;20044;-74
2023/09/30 02:44:31;;;;;;;36.95;7.00;;;;;;;-144.73;100.00;54543.16;5066512;28;20033;-76
2023/09/30 02:46:57;;;;;;;32.25;7.03;;;;;;;-144.73;100.00;54580.13;5050815;28;20013;-76
2023/09/30 02:49:22;;;;;;;40.95;6.30;;;;;;;-144.73;100.00;54588.31;5053227;28;20033;-75
2023/09/30 02:51:48;;;;;;;27.88;6.03;;;;;;;-144.73;100.00;54588.31;5058221;28;20029;-76
2023/09/30 02:54:16;;;;;;;38.97;7.35;;;;;;;-144.73;100.00;54576.00;5069067;28;20033;-75
2023/09/30 02:56:41;;;;;;;42.05;7.43;;;;;;;-144.73;100.00;54592.44;5069704;28;20100;-74
2023/09/30 02:59:07;;;;;;;37.47;6.78;;;;;;;-144.73;100.00;54578.06;5053139;28;20072;-74
2023/09/30 03:01:33;;;;;;;29.20;6.53;;;;;;;-144.73;100.00;54563.69;5085291;22;20136;-75
2023/09/30 03:03:59;;;;;;;39.70;7.65;;;;;;;-144.73;100.00;54551.38;5072593;28;20563;-75
2023/09/30 03:06:24;;;;;;;39.08;7.57;;;;;;;-144.73;100.00;54600.63;5066548;28;20029;-75
2023/09/30 03:08:49;;;;;;;38.65;6.90;;;;;;;-144.73;100.00;54555.47;5070454;28;20102;-74
2023/09/30 03:11:15;;;;;;;40.83;6.47;;;;;;;-144.73;100.00;54596.53;5068274;28;20032;-74
2023/09/30 03:13:42;;;;;;;39.83;6.63;;;;;;;-144.73;100.00;54551.38;5071746;28;20042;-74
2023/09/30 03:16:08;;;;;;;49.90;7.75;;;;;;;-144.73;100.00;54539.06;5063255;28;20111;-74
2023/09/30 03:18:33;;;;;;;38.00;6.82;;;;;;;-144.73;100.00;54576.00;5063054;28;20542;-74
2023/09/30 03:21:00;;;;;;;39.35;7.35;;;;;;;-144.73;100.00;54580.13;5050843;28;20055;-73
2023/09/30 03:23:30;;;;;;;47.45;7.28;;;;;;;-144.73;100.00;54576.00;5063843;28;20044;-73
2023/09/30 03:25:59;;;;;;;48.38;7.70;;;;;;;-144.73;100.00;54551.38;5067506;28;20074;-73
2023/09/30 03:28:25;;;;;;;46.00;6.65;;;;;;;-144.73;100.00;54543.16;5063406;28;20029;-73
2023/09/30 03:30:50;;;;;;;43.08;6.65;;;;;;;-144.73;100.00;54559.59;5047039;28;20028;-75
2023/09/30 03:33:17;;;;;;;31.70;6.93;;;;;;;-144.73;100.00;54526.75;5069600;28;20124;-76
2023/09/30 03:35:42;;;;;;;36.30;7.18;;;;;;;-144.73;100.00;54563.69;5062901;28;20017;-73
2023/09/30 03:38:09;;;;;;;34.63;7.45;;;;;;;-144.73;100.00;54541.13;5065517;28;20070;-73
2023/09/30 03:40:38;;;;;;;39.95;7.50;;;;;;;-144.73;100.00;54539.06;5072058;28;20451;-74
2023/09/30 03:43:05;;;;;;;51.90;8.15;;;;;;;-144.73;100.00;54539.06;5062044;28;20040;-74
2023/09/30 03:45:32;;;;;;;46.55;7.40;;;;;;;-144.73;100.00;54539.06;5067429;28;20021;-73
2023/09/30 03:47:58;;;;;;;32.88;6.90;;;;;;;-144.73;100.00;54539.06;5062502;28;20032;-74
2023/09/30 03:50:24;;;;;;;30.48;6.25;;;;;;;-144.73;100.00;54555.47;5072110;28;20029;-75
2023/09/30 03:52:52;;;;;;;35.65;7.05;;;;;;;-144.73;100.00;54563.69;5063132;28;20029;-77
2023/09/30 03:55:20;;;;;;;39.88;7.43;;;;;;;-144.73;100.00;54547.28;5060498;28;20044;-74
2023/09/30 03:57:48;;;;;;;41.25;7.15;;;;;;;-144.73;100.00;54530.84;5064053;28;20024;-74
2023/09/30 04:00:16;;;;;;;41.45;7.80;;;;;;;-144.73;100.00;54555.47;5063402;28;20066;-76
2023/09/30 04:02:43;;;;;;;37.50;7.85;;;;;;;-144.73;100.00;54551.38;5048437;28;20162;-74
2023/09/30 04:05:13;;;;;;;33.78;6.47;;;;;;;-144.73;100.00;54555.47;5066269;28;20095;-73
2023/09/30 04:07:39;;;;;;;35.45;7.40;;;;;;;-144.73;100.00;54584.22;5072409;28;20039;-74
2023/09/30 04:10:04;;;;;;;36.78;7.20;;;;;;;-144.73;100.00;54555.47;5066034;28;20020;-74
2023/09/30 04:12:32;;;;;;;42.70;8.07;;;;;;;-144.73;100.00;54555.47;5066599;28;20036;-73
2023/09/30 04:14:58;;;;;;;31.50;7.97;;;;;;;-144.73;100.00;54543.16;5070408;28;20028;-73
2023/09/30 04:17:23;;;;;;;36.33;7.55;;;;;;;-144.73;100.00;54588.31;5065889;28;20020;-73
2023/09/30 04:19:51;;;;;;;43.60;8.27;;;;;;;-144.73;100.00;54555.47;5064447;28;20507;-73
2023/09/30 04:22:17;;;;;;;36.58;8.15;;;;;;;-144.73;100.00;54547.28;5048838;28;20029;-74
2023/09/30 04:24:42;;;;;;;37.90;7.30;;;;;;;-144.73;100.00;54571.91;5064508;28;20088;-73
2023/09/30 04:27:07;;;;;;;41.42;7.45;;;;;;;-144.73;100.00;54555.47;5069790;28;20029;-74
2023/09/30 04:29:34;;;;;;;34.17;7.55;;;;;;;-144.73;100.00;54551.38;5063675;28;20037;-74
2023/09/30 04:31:59;;;;;;;30.92;8.18;;;;;;;-144.73;100.00;54580.13;5071154;28;20024;-73
2023/09/30 04:34:27;;;;;;;30.98;6.70;;;;;;;-144.73;100.00;54555.47;5065777;28;20434;-75
2023/09/30 04:36:53;;;;;;;45.50;8.10;;;;;;;-144.73;100.00;54555.47;5064343;28;20033;-77
2023/09/30 04:39:18;;;;;;;35.08;7.38;;;;;;;-144.73;100.00;54580.13;5060452;28;20037;-75
2023/09/30 04:41:44;;;;;;;33.45;7.07;;;;;;;-144.73;100.00;54551.38;5062879;28;20043;-74
2023/09/30 04:44:09;;;;;;;35.75;7.72;;;;;;;-144.73;100.00;54567.81;5064399;28;20127;-75
2023/09/30 04:46:45;;;;;;;41.05;7.88;;;;;;;-144.73;100.00;54555.47;5065038;28;20024;-74
2023/09/30 04:49:14;;;;;;;53.67;9.27;;;;;;;-144.73;100.00;54592.44;5062975;28;20097;-74
2023/09/30 04:51:40;;;;;;;44.35;11.65;;;;;;;-144.73;100.00;54567.81;5064085;28;20123;-74
2023/09/30 04:54:09;;;;;;;36.78;6.97;;;;;;;-144.73;100.00;54594.47;5064447;28;20115;-75
2023/09/30 04:56:35;;;;;;;29.65;6.72;;;;;;;-144.73;100.00;54563.69;5070884;28;20047;-76
2023/09/30 04:59:01;;;;;;;47.88;9.48;;;;;;;-144.73;100.00;54559.59;5067136;28;20116;-74
2023/09/30 05:01:28;;;;;;;35.10;7.55;;;;;;;-144.73;100.00;54539.06;5047865;28;20127;-75
2023/09/30 05:03:53;;;;;;;25.40;6.53;;;;;;;-144.73;100.00;54580.13;5068026;28;20040;-73
2023/09/30 05:06:19;;;;;;;37.20;7.75;;;;;;;-144.73;100.00;54567.81;5072002;28;20021;-75
2023/09/30 05:08:44;;;;;;;40.25;8.77;;;;;;;-144.73;100.00;54555.47;5061993;28;20094;-75
2023/09/30 05:11:10;;;;;;;47.22;7.55;;;;;;;-144.73;100.00;54563.69;5070682;28;20111;-72
2023/09/30 05:13:38;;;;;;;33.80;8.13;;;;;;;-144.73;100.00;54559.59;5056851;28;20047;-73
2023/09/30 05:16:03;;;;;;;48.15;9.32;;;;;;;-144.73;100.00;54571.91;5064156;28;20028;-74
2023/09/30 05:18:29;;;;;;;34.22;8.27;;;;;;;-144.73;100.00;54563.69;5065563;28;20037;-75
2023/09/30 05:20:55;;;;;;;40.50;7.38;;;;;;;-144.73;100.00;54539.06;5068760;28;20119;-75
2023/09/30 05:23:20;;;;;;;48.03;8.27;;;;;;;-144.73;100.00;54547.28;5063422;28;20037;-75
2023/09/30 05:25:46;;;;;;;41.13;8.88;;;;;;;-144.73;100.00;54559.59;5064222;28;20051;-75
2023/09/30 05:28:13;;;;;;;41.13;9.02;;;;;;;-144.73;100.00;54567.81;5053185;28;20074;-75
2023/09/30 05:30:40;;;;;;;33.60;8.35;;;;;;;-144.73;100.00;54559.59;5070809;28;20024;-74
2023/09/30 05:33:06;;;;;;;46.40;7.90;;;;;;;-144.73;100.00;54530.84;5055567;28;20052;-73
2023/09/30 05:35:32;;;;;;;45.90;8.23;;;;;;;-144.73;100.00;54596.53;5068833;28;20048;-75
2023/09/30 05:37:57;;;;;;;37.42;7.70;;;;;;;-144.73;100.00;54551.38;5064899;28;20090;-74
2023/09/30 05:40:25;;;;;;;35.47;6.97;;;;;;;-144.73;100.00;54543.16;5066520;28;20031;-75
2023/09/30 05:42:55;;;;;;;38.35;8.57;;;;;;;-144.73;100.00;54588.31;5068242;28;20036;-76
2023/09/30 05:45:23;;;;;;;35.40;7.38;;;;;;;-144.73;100.00;54557.53;5059464;28;20024;-76
2023/09/30 05:47:49;;;;;;;37.33;8.00;;;;;;;-144.73;100.00;54553.44;5049980;28;20098;-74
2023/09/30 05:50:16;;;;;;;47.60;7.68;;;;;;;-144.73;100.00;54555.47;5062832;28;20017;-73
2023/09/30 05:52:45;;;;;;;39.33;7.85;;;;;;;-144.73;100.00;54551.38;5069562;28;20111;-74
2023/09/30 05:55:11;;;;;;;39.13;6.60;;;;;;;-144.73;100.00;54582.16;5068884;28;20063;-73
2023/09/30 05:57:36;;;;;;;36.00;6.72;;;;;;;-144.73;100.00;54539.06;5069956;28;20052;-74
2023/09/30 06:00:28;;;;;;;31.98;7.25;;;;;;;-144.73;100.00;54518.53;5070136;28;20096;-76
2023/09/30 06:02:55;;;;;;;27.33;7.63;;;;;;;-144.73;100.00;54520.59;5060258;28;20036;-76
2023/09/30 06:05:22;;;;;;;45.25;7.43;;;;;;;-144.73;100.00;54559.59;5056379;28;20024;-74
2023/09/30 06:07:47;;;;;;;39.33;8.50;;;;;;;-144.73;100.00;54539.06;5068980;28;20036;-74
2023/09/30 06:10:18;;;;;;;51.22;7.95;;;;;;;-144.73;100.00;54555.47;5070483;28;20039;-74
2023/09/30 06:12:45;;;;;;;36.28;6.70;;;;;;;-144.73;100.00;54526.75;5061426;28;20044;-74
2023/09/30 06:15:10;;;;;;;30.27;7.40;;;;;;;-144.73;100.00;54547.28;5063175;28;20525;-74
2023/09/30 06:17:36;;;;;;;35.95;7.95;;;;;;;-144.73;100.00;54588.31;5069852;28;20027;-76
2023/09/30 06:20:08;;;;;;;34.97;6.93;;;;;;;-144.73;100.00;54545.22;5066288;28;20016;-76
2023/09/30 06:22:33;;;;;;;39.90;7.18;;;;;;;-144.73;100.00;54580.13;5071481;28;20103;-74
2023/09/30 06:24:59;;;;;;;34.83;7.05;;;;;;;-144.73;100.00;54547.28;5067790;28;20088;-73
2023/09/30 06:27:24;;;;;;;36.80;7.00;;;;;;;-144.73;100.00;54539.06;5052980;28;20107;-75
2023/09/30 06:29:50;;;;;;;30.58;6.70;;;;;;;-144.73;100.00;54539.06;5069269;28;20032;-74
2023/09/30 06:32:15;;;;;;;38.90;8.10;;;;;;;-144.73;100.00;54530.84;5073413;28;20052;-75
2023/09/30 06:34:41;;;;;;;34.85;7.03;;;;;;;-144.73;100.00;54561.63;5069273;28;20041;-76
2023/09/30 06:37:06;;;;;;;35.50;6.93;;;;;;;-144.73;100.00;54551.38;5072254;28;20386;-75
2023/09/30 06:39:32;;;;;;;43.22;7.88;;;;;;;-144.73;100.00;54543.16;5074025;28;20029;-74
2023/09/30 06:41:57;;;;;;;41.30;7.05;;;;;;;-144.73;100.00;54563.69;5074610;28;20094;-75
2023/09/30 06:44:25;;;;;;;41.00;7.82;;;;;;;-144.73;100.00;54555.47;5074345;28;20029;-74
2023/09/30 06:46:51;;;;;;;35.75;7.47;;;;;;;-144.73;100.00;54567.81;5057143;28;20020;-74
2023/09/30 06:49:16;;;;;;;33.30;6.85;;;;;;;-144.73;100.00;54567.81;5051627;28;20091;-73
2023/09/30 06:51:42;;;;;;;31.05;6.72;;;;;;;-144.73;100.00;54551.38;5073424;28;20029;-73
2023/09/30 06:54:07;;;;;;;35.03;7.00;;;;;;;-144.73;100.00;54516.47;5072142;28;20163;-75
2023/09/30 06:56:33;;;;;;;32.53;7.18;;;;;;;-144.73;100.00;54559.59;5057093;28;20028;-68
2023/09/30 06:58:59;;;;;;;34.03;7.10;;;;;;;-144.73;100.00;54555.47;5053416;28;20064;-68
2023/09/30 07:01:25;;;;;;;39.45;7.55;;;;;;;-144.73;100.00;54559.59;5073245;28;20092;-70
2023/09/30 07:03:51;;;;;;;33.40;7.20;;;;;;;-144.73;100.00;54590.38;5066321;28;20115;-69
2023/09/30 07:06:24;;;;;;;36.33;6.93;;;;;;;-144.73;100.00;54559.59;5071064;28;20031;-70
2023/09/30 07:08:49;;;;;;;37.70;7.78;;;;;;;-144.73;100.00;54590.38;5067386;28;20033;-68
2023/09/30 07:11:15;;;;;;;36.35;6.68;;;;;;;-144.73;100.00;54576.00;5068042;28;20026;-70
2023/09/30 07:13:40;;;;;;;35.83;6.43;;;;;;;-144.73;100.00;54571.91;5072484;28;20081;-69
2023/09/30 07:16:06;;;;;;;51.22;7.90;;;;;;;-144.73;100.00;54539.06;5063152;28;20016;-69
2023/09/30 07:18:31;;;;;;;50.05;8.32;;;;;;;-144.73;100.00;54555.47;5069832;28;20029;-70
2023/09/30 07:20:57;;;;;;;36.25;7.38;;;;;;;-144.73;100.00;54543.16;5070879;28;20458;-69
2023/09/30 07:23:22;;;;;;;34.97;7.13;;;;;;;-144.73;100.00;54551.38;5071463;28;20040;-68
2023/09/30 07:25:48;;;;;;;32.65;6.72;;;;;;;-144.73;100.00;54551.38;5049620;28;20040;-69
2023/09/30 07:28:14;;;;;;;23.70;5.53;;;;;;;-144.73;100.00;54530.84;5068867;28;20055;-69
2023/09/30 07:30:39;;;;;;;31.98;6.45;;;;;;;-144.73;100.00;54563.69;5069499;28;20020;-69
2023/09/30 07:33:06;;;;;;;41.03;6.13;;;;;;;-144.73;100.00;54551.38;5069510;28;20099;-69
2023/09/30 07:35:32;;;;;;;32.10;6.85;;;;;;;-144.73;100.00;54576.00;5067072;28;20107;-70
2023/09/30 07:37:57;;;;;;;30.73;6.10;;;;;;;-144.73;100.00;54569.84;5069219;28;20123;-71
2023/09/30 07:40:23;;;;;;;30.77;6.65;;;;;;;-144.73;100.00;54586.28;5073561;28;20023;-69
2023/09/30 07:42:49;;;;;;;34.80;7.05;;;;;;;-144.73;100.00;54571.91;5068838;28;20387;-68
2023/09/30 07:45:16;;;;;;;31.75;5.78;;;;;;;-144.73;100.00;54539.06;5052120;28;20051;-69
2023/09/30 07:47:44;;;;;;;26.17;5.28;;;;;;;-144.73;100.00;54584.22;5067594;28;20030;-70
2023/09/30 07:50:09;;;;;;;29.88;7.00;;;;;;;-144.73;100.00;54578.06;5071143;28;20024;-70
2023/09/30 07:52:35;;;;;;;37.33;6.75;;;;;;;-144.73;100.00;54539.06;5068410;28;20113;-70
2023/09/30 07:55:01;;;;;;;34.38;6.60;;;;;;;-144.73;100.00;54541.13;5049662;28;20027;-68
2023/09/30 07:57:26;;;;;;;21.10;6.13;;;;;;;-144.73;100.00;54526.75;5065319;28;20029;-71
2023/09/30 07:59:52;;;;;;;26.63;5.70;;;;;;;-144.73;100.00;54557.53;5043434;28;20037;-69
2023/09/30 08:02:21;;;;;;;27.05;5.65;;;;;;;-144.73;100.00;54571.91;5062926;28;20102;-69
2023/09/30 08:04:47;;;;;;;29.75;5.85;;;;;;;-144.73;100.00;54539.06;5068090;28;20490;-69
2023/09/30 08:07:13;;;;;;;38.13;6.22;;;;;;;-144.73;100.00;54592.44;5066251;28;20055;-69
2023/09/30 08:09:38;;;;;;;27.30;5.47;;;;;;;-144.73;100.00;54551.38;5046630;28;20032;-70
2023/09/30 08:12:04;;;;;;;26.65;5.03;;;;;;;-144.73;100.00;54481.59;5066432;28;20150;-69
2023/09/30 08:14:30;;;;;;;24.73;4.65;;;;;;;-144.73;100.00;54543.16;5060539;28;20063;-69
2023/09/30 08:16:56;;;;;;;35.65;6.32;;;;;;;-144.73;100.00;54604.75;5066874;28;20103;-70
2023/09/30 08:19:22;;;;;;;30.77;5.50;;;;;;;-144.73;100.00;54563.69;5063179;28;20097;-70
2023/09/30 08:21:47;;;;;;;24.98;6.00;;;;;;;-144.73;100.00;54567.81;5064608;28;20103;-70
2023/09/30 08:24:13;;;;;;;40.53;5.60;;;;;;;-144.73;100.00;54524.69;5064065;28;20052;-70
2023/09/30 08:26:38;;;;;;;32.25;5.13;;;;;;;-144.73;100.00;54547.28;5062859;28;20036;-70
2023/09/30 08:29:03;;;;;;;28.95;5.10;;;;;;;-144.73;100.00;54539.06;5066710;28;20029;-70
2023/09/30 08:31:29;;;;;;;30.13;5.05;;;;;;;-144.73;100.00;54567.81;5065355;28;20094;-70
2023/09/30 08:33:55;;;;;;;24.30;5.30;;;;;;;-144.73;100.00;54543.16;5046268;28;20040;-71
2023/09/30 08:36:20;;;;;;;33.22;5.70;;;;;;;-144.73;100.00;54522.63;5063844;28;20039;-70
2023/09/30 08:38:46;;;;;;;29.10;5.30;;;;;;;-144.73;100.00;54516.47;5060363;28;20037;-69
2023/09/30 08:41:33;;;;;;;22.55;4.97;;;;;;;-144.73;100.00;54539.06;5058846;28;20093;-70
2023/09/30 08:44:03;;;;;;;19.35;4.20;;;;;;;-144.73;100.00;54563.69;5066351;28;20518;-71
2023/09/30 08:46:34;;;;;;;26.75;5.22;;;;;;;-144.73;100.00;54526.75;5066643;28;20013;-69
2023/09/30 08:49:05;;;;;;;26.30;5.05;;;;;;;-144.73;100.00;54555.47;5064377;28;20127;-69
2023/09/30 08:51:31;;;;;;;;;;;;;;;-144.73;100.00;54563.69;5047473;28;20086;-70
2023/09/30 08:53:58;;;;;;;27.45;4.60;;;;;;;-144.73;100.00;54559.59;5066563;28;19920;-70
2023/09/30 08:56:29;;;;;;;30.35;6.20;;;;;;;-144.73;100.00;54520.59;5068185;28;20071;-70
2023/09/30 08:58:58;;;;;;;29.40;5.30;;;;;;;-144.73;100.00;54555.47;5066037;28;20040;-69
2023/09/30 09:01:24;;;;;;;20.80;4.38;;;;;;;-144.73;100.00;54539.06;5067731;28;20023;-71
2023/09/30 09:03:52;;;;;;;29.40;5.72;;;;;;;-144.73;100.00;54576.00;5065466;28;20040;-69
2023/09/30 09:06:22;;;;;;;23.88;4.53;;;;;;;-144.73;100.00;54543.16;5068160;28;20034;-69
2023/09/30 09:08:48;;;;;;;33.15;5.75;;;;;;;-144.73;100.00;54539.06;5069743;28;20028;-69
2023/09/30 09:11:14;;;;;;;27.02;4.38;;;;;;;-144.73;100.00;54539.06;5066317;28;20019;-69
2023/09/30 09:13:55;;;;;;;27.05;5.15;;;;;;;-144.73;100.00;54555.47;5068093;28;20033;-69
2023/09/30 09:16:22;;;;;;;24.98;4.28;;;;;;;-144.73;100.00;54541.13;5062643;28;20033;-69
2023/09/30 09:18:48;;;;;;;21.67;4.30;;;;;;;-144.73;100.00;54559.59;5062792;28;20044;-70
2023/09/30 09:21:17;;;;;;;28.55;4.85;;;;;;;-144.73;100.00;54539.06;5066504;28;20036;-70
2023/09/30 09:23:45;;;;;;;24.48;4.82;;;;;;;-144.73;100.00;54571.91;5064806;28;20040;-70
2023/09/30 09:26:34;;;;;;;25.45;5.20;;;;;;;-144.73;100.00;54514.44;5067665;28;20148;-70
2023/09/30 09:29:01;;;;;;;21.08;3.70;;;;;;;-144.73;100.00;54518.53;5066847;28;20474;-71
2023/09/30 09:31:36;;;;;;;25.92;4.50;;;;;;;-144.73;100.00;54489.81;5067009;28;20032;-70
2023/09/30 09:34:03;;;;;;;20.73;4.22;;;;;;;-144.73;100.00;54555.47;5065058;28;20025;-70
2023/09/30 09:36:40;;;;;;;31.55;3.97;;;;;;;-144.73;100.00;54567.81;5065357;28;20082;-70
2023/09/30 09:39:06;;;;;;;33.78;4.65;;;;;;;-144.73;100.00;54590.38;5068265;28;20040;-71
2023/09/30 09:41:31;;;;;;;24.35;4.63;;;;;;;-144.73;100.00;54516.47;5065713;28;20028;-69
2023/09/30 09:43:59;;;;;;;26.63;4.88;;;;;;;-144.73;100.00;54541.13;5049968;28;20048;-70
2023/09/30 09:46:25;;;;;;;37.45;4.90;;;;;;;-144.73;100.00;54512.38;5067732;28;20046;-69
2023/09/30 09:48:53;;;;;;;23.33;4.53;;;;;;;-144.73;100.00;54498.00;5065263;28;20035;-69
2023/09/30 09:51:21;;;;;;;33.90;4.60;;;;;;;-144.73;100.00;54481.59;5066243;28;20028;-69
2023/09/30 09:53:49;;;;;;;32.60;4.80;;;;;;;-144.73;100.00;54526.75;5066076;28;20032;-70
2023/09/30 09:56:15;;;;;;;22.95;4.10;;;;;;;-144.73;100.00;54518.53;5066586;28;20035;-69
2023/09/30 09:58:42;;;;;;;24.50;5.47;;;;;;;-144.73;100.00;54563.69;5065321;28;20036;-69
2023/09/30 10:01:10;;;;;;;28.95;4.65;;;;;;;-144.73;100.00;54539.06;5069603;28;20025;-69
2023/09/30 10:03:37;;;;;;;26.38;4.93;;;;;;;-144.73;100.00;54510.31;5067902;28;20083;-69
2023/09/30 10:06:04;;;;;;;31.13;4.53;;;;;;;-144.73;100.00;54543.16;5066402;28;20017;-69
2023/09/30 10:08:40;;;;;;;25.98;5.05;;;;;;;-144.73;100.00;54506.22;5067204;28;20086;-69
2023/09/30 10:11:06;;;;;;;24.15;4.75;;;;;;;-144.73;100.00;54543.16;5069087;28;20024;-69
2023/09/30 10:14:00;;;;;;;24.42;4.30;;;;;;;-144.73;100.00;54506.22;5064140;28;20043;-70
2023/09/30 10:16:35;;;;;;;21.38;3.88;;;;;;;-144.73;100.00;54543.16;5061657;28;20037;-70
2023/09/30 10:19:24;;;;;;;28.85;4.55;;;;;;;-144.73;100.00;54543.16;5066459;28;20051;-70
2023/09/30 10:22:24;;;;;;;20.67;3.70;;;;;;;-144.73;100.00;54498.00;5065533;28;20056;-70
2023/09/30 10:24:51;;;;;;;19.75;3.83;;;;;;;-144.73;100.00;54543.16;5065768;28;20127;-70
2023/09/30 10:27:32;;;;;;;23.58;3.90;;;;;;;-144.73;100.00;54510.31;5066669;28;20056;-70
2023/09/30 10:30:16;;;;;;;15.60;3.80;;;;;;;-144.73;100.00;54520.59;5064464;28;20037;-70
2023/09/30 10:32:50;;;;;;;30.02;4.28;;;;;;;-144.73;100.00;54456.97;5063690;28;20024;-70
2023/09/30 10:35:20;;;;;;;16.25;2.70;;;;;;;-144.73;100.00;54489.81;5066638;28;20060;-70
2023/09/30 10:37:46;;;;;;;22.75;3.65;;;;;;;-144.73;100.00;54518.53;5064535;28;20021;-71
2023/09/30 10:40:41;;;;;;;17.23;3.65;;;;;;;-144.73;100.00;54477.47;5067371;28;20363;-70
2023/09/30 10:43:30;;;;;;;17.13;3.60;;;;;;;-144.73;100.00;54489.81;5054219;28;20032;-70
2023/09/30 10:45:56;;;;;;;21.88;3.83;;;;;;;-144.73;100.00;54510.31;5065153;28;20017;-70
2023/09/30 10:48:24;;;;;;;20.63;3.45;;;;;;;-144.73;100.00;54524.69;5064386;28;20044;-70
2023/09/30 10:51:01;;;;;;;24.08;3.70;;;;;;;-144.73;100.00;54539.06;5065378;28;20032;-71
2023/09/30 10:53:30;;;;;;;20.33;3.42;;;;;;;-144.73;100.00;54518.53;5064403;28;20059;-69
2023/09/30 10:55:59;;;;;;;26.15;3.75;;;;;;;-144.73;100.00;54530.84;5065868;28;20085;-71
2023/09/30 10:58:44;;;;;;;18.90;3.63;;;;;;;-144.73;100.00;54522.63;5064573;28;20371;-71
2023/09/30 11:01:12;;;;;;;19.90;3.65;;;;;;;-144.73;100.00;54477.47;5067701;28;20029;-69
2023/09/30 11:03:38;;;;;;;20.05;3.60;;;;;;;-144.73;100.00;54518.53;5067792;28;20044;-72